sensor_id;sensor_type;location;lat;lon;timestamp;P1;durP1;ratioP1;P2;durP2;ratioP2
78799;SDS011;68148;55.328;86.106;2023-06-10T00:02:15;8.40;;;3.55;;
78799;SDS011;68148;55.328;86.106;2023-06-10T00:04:41;5.40;;;2.85;;
78799;SDS011;68148;55.328;86.106;2023-06-10T00:07:09;6.88;;;3.53;;
78799;SDS011;68148;55.328;86.106;2023-06-10T00:09:38;5.22;;;3.88;;
78799;SDS011;68148;55.328;86.106;2023-06-10T00:12:04;5.55;;;3.55;;
78799;SDS011;68148;55.328;86.106;2023-06-10T00:14:32;8.05;;;3.90;;
78799;SDS011;68148;55.328;86.106;2023-06-10T00:17:02;11.82;;;3.20;;
78799;SDS011;68148;55.328;86.106;2023-06-10T00:19:28;6.50;;;2.90;;
78799;SDS011;68148;55.328;86.106;2023-06-10T00:21:54;6.93;;;3.22;;
78799;SDS011;68148;55.328;86.106;2023-06-10T00:24:20;4.03;;;2.72;;
78799;SDS011;68148;55.328;86.106;2023-06-10T00:26:46;4.28;;;2.30;;
78799;SDS011;68148;55.328;86.106;2023-06-10T00:29:11;7.70;;;2.13;;
78799;SDS011;68148;55.328;86.106;2023-06-10T00:31:37;6.03;;;2.50;;
78799;SDS011;68148;55.328;86.106;2023-06-10T00:34:03;8.18;;;4.38;;
78799;SDS011;68148;55.328;86.106;2023-06-10T00:36:29;6.50;;;3.97;;
78799;SDS011;68148;55.328;86.106;2023-06-10T00:38:56;7.03;;;3.15;;
78799;SDS011;68148;55.328;86.106;2023-06-10T00:41:22;7.35;;;3.30;;
78799;SDS011;68148;55.328;86.106;2023-06-10T00:43:48;5.07;;;2.42;;
78799;SDS011;68148;55.328;86.106;2023-06-10T00:46:14;4.55;;;2.85;;
78799;SDS011;68148;55.328;86.106;2023-06-10T00:48:42;4.75;;;2.42;;
78799;SDS011;68148;55.328;86.106;2023-06-10T00:51:09;3.17;;;1.92;;
78799;SDS011;68148;55.328;86.106;2023-06-10T00:53:35;4.80;;;2.38;;
78799;SDS011;68148;55.328;86.106;2023-06-10T00:56:04;3.92;;;2.72;;
78799;SDS011;68148;55.328;86.106;2023-06-10T01:00:58;5.65;;;3.08;;
78799;SDS011;68148;55.328;86.106;2023-06-10T01:03:24;3.08;;;2.50;;
78799;SDS011;68148;55.328;86.106;2023-06-10T01:08:41;5.30;;;2.75;;
78799;SDS011;68148;55.328;86.106;2023-06-10T01:11:21;4.30;;;2.30;;
78799;SDS011;68148;55.328;86.106;2023-06-10T01:13:50;4.15;;;2.38;;
78799;SDS011;68148;55.328;86.106;2023-06-10T01:16:19;3.42;;;2.67;;
78799;SDS011;68148;55.328;86.106;2023-06-10T01:18:45;2.70;;;2.30;;
78799;SDS011;68148;55.328;86.106;2023-06-10T01:21:29;6.93;;;3.20;;
78799;SDS011;68148;55.328;86.106;2023-06-10T01:23:55;3.53;;;2.65;;
78799;SDS011;68148;55.328;86.106;2023-06-10T01:26:22;2.90;;;2.35;;
78799;SDS011;68148;55.328;86.106;2023-06-10T01:34:14;3.05;;;2.63;;
78799;SDS011;68148;55.328;86.106;2023-06-10T01:36:43;5.78;;;2.80;;
78799;SDS011;68148;55.328;86.106;2023-06-10T01:39:11;5.38;;;2.60;;
78799;SDS011;68148;55.328;86.106;2023-06-10T01:41:38;3.15;;;2.80;;
78799;SDS011;68148;55.328;86.106;2023-06-10T01:44:05;7.25;;;2.83;;
78799;SDS011;68148;55.328;86.106;2023-06-10T01:46:31;5.78;;;3.20;;
78799;SDS011;68148;55.328;86.106;2023-06-10T01:48:57;5.18;;;2.88;;
78799;SDS011;68148;55.328;86.106;2023-06-10T01:51:23;3.10;;;2.47;;
78799;SDS011;68148;55.328;86.106;2023-06-10T01:53:49;3.45;;;2.72;;
78799;SDS011;68148;55.328;86.106;2023-06-10T01:56:15;3.67;;;2.72;;
78799;SDS011;68148;55.328;86.106;2023-06-10T01:58:40;4.40;;;2.95;;
78799;SDS011;68148;55.328;86.106;2023-06-10T02:01:06;6.78;;;2.75;;
78799;SDS011;68148;55.328;86.106;2023-06-10T02:03:33;3.13;;;2.45;;
78799;SDS011;68148;55.328;86.106;2023-06-10T02:05:58;4.57;;;2.60;;
78799;SDS011;68148;55.328;86.106;2023-06-10T02:08:24;4.35;;;2.75;;
78799;SDS011;68148;55.328;86.106;2023-06-10T02:10:50;3.05;;;1.95;;
78799;SDS011;68148;55.328;86.106;2023-06-10T02:13:16;9.50;;;2.60;;
78799;SDS011;68148;55.328;86.106;2023-06-10T02:15:42;6.68;;;3.95;;
78799;SDS011;68148;55.328;86.106;2023-06-10T02:18:09;5.35;;;3.20;;
78799;SDS011;68148;55.328;86.106;2023-06-10T02:20:35;5.63;;;2.75;;
78799;SDS011;68148;55.328;86.106;2023-06-10T02:23:01;7.18;;;3.25;;
78799;SDS011;68148;55.328;86.106;2023-06-10T02:25:27;5.60;;;2.72;;
78799;SDS011;68148;55.328;86.106;2023-06-10T02:27:53;4.25;;;2.10;;
78799;SDS011;68148;55.328;86.106;2023-06-10T02:30:19;3.97;;;2.17;;
78799;SDS011;68148;55.328;86.106;2023-06-10T02:32:45;2.83;;;2.38;;
78799;SDS011;68148;55.328;86.106;2023-06-10T02:35:12;10.00;;;7.60;;
78799;SDS011;68148;55.328;86.106;2023-06-10T02:37:38;9.48;;;5.72;;
78799;SDS011;68148;55.328;86.106;2023-06-10T02:40:04;3.13;;;1.95;;
78799;SDS011;68148;55.328;86.106;2023-06-10T02:42:31;5.47;;;2.78;;
78799;SDS011;68148;55.328;86.106;2023-06-10T02:44:57;3.90;;;2.45;;
78799;SDS011;68148;55.328;86.106;2023-06-10T02:47:23;3.78;;;2.47;;
78799;SDS011;68148;55.328;86.106;2023-06-10T02:49:49;6.60;;;2.30;;
78799;SDS011;68148;55.328;86.106;2023-06-10T02:52:14;3.00;;;2.33;;
78799;SDS011;68148;55.328;86.106;2023-06-10T02:54:41;4.43;;;2.85;;
78799;SDS011;68148;55.328;86.106;2023-06-10T02:57:07;5.05;;;2.28;;
78799;SDS011;68148;55.328;86.106;2023-06-10T02:59:32;2.97;;;1.98;;
78799;SDS011;68148;55.328;86.106;2023-06-10T03:01:58;2.83;;;1.95;;
78799;SDS011;68148;55.328;86.106;2023-06-10T03:04:24;3.38;;;1.85;;
78799;SDS011;68148;55.328;86.106;2023-06-10T03:06:50;5.70;;;3.38;;
78799;SDS011;68148;55.328;86.106;2023-06-10T03:09:16;3.35;;;2.33;;
78799;SDS011;68148;55.328;86.106;2023-06-10T03:11:42;5.63;;;2.08;;
78799;SDS011;68148;55.328;86.106;2023-06-10T03:14:08;4.78;;;2.47;;
78799;SDS011;68148;55.328;86.106;2023-06-10T03:16:34;3.70;;;2.38;;
78799;SDS011;68148;55.328;86.106;2023-06-10T03:19:00;6.75;;;2.70;;
78799;SDS011;68148;55.328;86.106;2023-06-10T03:21:26;7.88;;;2.30;;
78799;SDS011;68148;55.328;86.106;2023-06-10T03:23:52;5.97;;;3.17;;
78799;SDS011;68148;55.328;86.106;2023-06-10T03:26:18;2.63;;;1.73;;
78799;SDS011;68148;55.328;86.106;2023-06-10T03:28:44;4.15;;;2.38;;
78799;SDS011;68148;55.328;86.106;2023-06-10T03:31:09;2.92;;;1.48;;
78799;SDS011;68148;55.328;86.106;2023-06-10T03:33:35;3.38;;;2.30;;
78799;SDS011;68148;55.328;86.106;2023-06-10T03:36:01;4.15;;;2.83;;
78799;SDS011;68148;55.328;86.106;2023-06-10T03:38:27;4.75;;;2.58;;
78799;SDS011;68148;55.328;86.106;2023-06-10T03:40:53;6.10;;;2.75;;
78799;SDS011;68148;55.328;86.106;2023-06-10T03:43:18;13.98;;;3.15;;
78799;SDS011;68148;55.328;86.106;2023-06-10T03:45:44;7.35;;;2.85;;
78799;SDS011;68148;55.328;86.106;2023-06-10T03:48:10;5.38;;;2.53;;
78799;SDS011;68148;55.328;86.106;2023-06-10T03:50:36;5.78;;;2.78;;
78799;SDS011;68148;55.328;86.106;2023-06-10T03:53:02;7.30;;;2.70;;
78799;SDS011;68148;55.328;86.106;2023-06-10T03:55:28;4.35;;;2.42;;
78799;SDS011;68148;55.328;86.106;2023-06-10T03:57:54;6.35;;;3.20;;
78799;SDS011;68148;55.328;86.106;2023-06-10T04:00:20;3.63;;;2.10;;
78799;SDS011;68148;55.328;86.106;2023-06-10T04:02:46;2.45;;;2.00;;
78799;SDS011;68148;55.328;86.106;2023-06-10T04:05:12;4.18;;;2.10;;
78799;SDS011;68148;55.328;86.106;2023-06-10T04:07:38;5.60;;;2.00;;
78799;SDS011;68148;55.328;86.106;2023-06-10T04:10:04;5.90;;;2.65;;
78799;SDS011;68148;55.328;86.106;2023-06-10T04:12:31;7.07;;;2.80;;
78799;SDS011;68148;55.328;86.106;2023-06-10T04:14:57;2.20;;;1.63;;
78799;SDS011;68148;55.328;86.106;2023-06-10T04:17:23;5.32;;;2.15;;
78799;SDS011;68148;55.328;86.106;2023-06-10T04:19:49;4.90;;;2.15;;
78799;SDS011;68148;55.328;86.106;2023-06-10T04:22:15;4.35;;;1.95;;
78799;SDS011;68148;55.328;86.106;2023-06-10T04:24:44;2.65;;;2.28;;
78799;SDS011;68148;55.328;86.106;2023-06-10T04:27:09;2.85;;;1.65;;
78799;SDS011;68148;55.328;86.106;2023-06-10T04:29:35;4.97;;;2.00;;
78799;SDS011;68148;55.328;86.106;2023-06-10T04:32:04;5.50;;;1.92;;
78799;SDS011;68148;55.328;86.106;2023-06-10T04:34:30;3.22;;;1.77;;
78799;SDS011;68148;55.328;86.106;2023-06-10T04:36:59;4.30;;;1.80;;
78799;SDS011;68148;55.328;86.106;2023-06-10T04:39:25;3.35;;;1.80;;
78799;SDS011;68148;55.328;86.106;2023-06-10T04:41:51;3.85;;;2.22;;
78799;SDS011;68148;55.328;86.106;2023-06-10T04:44:17;9.65;;;1.58;;
78799;SDS011;68148;55.328;86.106;2023-06-10T04:46:43;11.80;;;2.38;;
78799;SDS011;68148;55.328;86.106;2023-06-10T04:49:10;6.70;;;2.55;;
78799;SDS011;68148;55.328;86.106;2023-06-10T04:51:35;4.55;;;2.20;;
78799;SDS011;68148;55.328;86.106;2023-06-10T04:54:01;9.73;;;1.60;;
78799;SDS011;68148;55.328;86.106;2023-06-10T04:56:27;5.65;;;1.85;;
78799;SDS011;68148;55.328;86.106;2023-06-10T04:58:53;8.63;;;2.67;;
78799;SDS011;68148;55.328;86.106;2023-06-10T05:01:22;5.82;;;2.40;;
78799;SDS011;68148;55.328;86.106;2023-06-10T05:03:48;5.55;;;2.42;;
78799;SDS011;68148;55.328;86.106;2023-06-10T05:06:13;3.75;;;2.05;;
78799;SDS011;68148;55.328;86.106;2023-06-10T05:08:39;7.70;;;2.67;;
78799;SDS011;68148;55.328;86.106;2023-06-10T05:11:05;5.20;;;2.97;;
78799;SDS011;68148;55.328;86.106;2023-06-10T05:13:31;3.22;;;2.67;;
78799;SDS011;68148;55.328;86.106;2023-06-10T05:15:57;3.67;;;2.75;;
78799;SDS011;68148;55.328;86.106;2023-06-10T05:20:52;8.80;;;3.40;;
78799;SDS011;68148;55.328;86.106;2023-06-10T05:23:18;7.22;;;2.60;;
78799;SDS011;68148;55.328;86.106;2023-06-10T05:25:43;7.57;;;2.78;;
78799;SDS011;68148;55.328;86.106;2023-06-10T05:28:09;8.60;;;2.38;;
78799;SDS011;68148;55.328;86.106;2023-06-10T05:30:35;6.55;;;3.38;;
78799;SDS011;68148;55.328;86.106;2023-06-10T05:33:02;4.57;;;3.10;;
78799;SDS011;68148;55.328;86.106;2023-06-10T05:35:28;4.82;;;2.60;;
78799;SDS011;68148;55.328;86.106;2023-06-10T05:37:54;5.80;;;3.00;;
78799;SDS011;68148;55.328;86.106;2023-06-10T05:40:20;9.50;;;2.90;;
78799;SDS011;68148;55.328;86.106;2023-06-10T05:42:46;4.85;;;2.90;;
78799;SDS011;68148;55.328;86.106;2023-06-10T05:45:12;3.13;;;2.22;;
78799;SDS011;68148;55.328;86.106;2023-06-10T05:47:38;3.90;;;2.72;;
78799;SDS011;68148;55.328;86.106;2023-06-10T05:50:04;3.65;;;2.90;;
78799;SDS011;68148;55.328;86.106;2023-06-10T05:52:30;7.78;;;3.03;;
78799;SDS011;68148;55.328;86.106;2023-06-10T05:54:57;7.40;;;2.92;;
78799;SDS011;68148;55.328;86.106;2023-06-10T05:57:22;4.82;;;3.38;;
78799;SDS011;68148;55.328;86.106;2023-06-10T05:59:48;6.20;;;3.45;;
78799;SDS011;68148;55.328;86.106;2023-06-10T06:02:14;7.35;;;3.03;;
78799;SDS011;68148;55.328;86.106;2023-06-10T06:04:40;4.40;;;3.15;;
78799;SDS011;68148;55.328;86.106;2023-06-10T06:07:06;5.25;;;2.40;;
78799;SDS011;68148;55.328;86.106;2023-06-10T06:09:32;3.30;;;2.22;;
78799;SDS011;68148;55.328;86.106;2023-06-10T06:11:58;8.50;;;2.72;;
78799;SDS011;68148;55.328;86.106;2023-06-10T06:14:24;7.63;;;2.83;;
78799;SDS011;68148;55.328;86.106;2023-06-10T06:16:50;4.25;;;2.42;;
78799;SDS011;68148;55.328;86.106;2023-06-10T06:19:15;3.70;;;3.05;;
78799;SDS011;68148;55.328;86.106;2023-06-10T06:21:41;5.78;;;3.10;;
78799;SDS011;68148;55.328;86.106;2023-06-10T06:24:07;3.25;;;2.35;;
78799;SDS011;68148;55.328;86.106;2023-06-10T06:26:33;4.90;;;2.72;;
78799;SDS011;68148;55.328;86.106;2023-06-10T06:28:59;3.28;;;2.25;;
78799;SDS011;68148;55.328;86.106;2023-06-10T06:31:25;4.78;;;2.90;;
78799;SDS011;68148;55.328;86.106;2023-06-10T06:33:51;10.80;;;2.42;;
78799;SDS011;68148;55.328;86.106;2023-06-10T06:36:17;8.60;;;2.72;;
78799;SDS011;68148;55.328;86.106;2023-06-10T06:38:42;7.10;;;2.80;;
78799;SDS011;68148;55.328;86.106;2023-06-10T06:41:08;3.55;;;2.22;;
78799;SDS011;68148;55.328;86.106;2023-06-10T06:43:34;3.83;;;2.65;;
78799;SDS011;68148;55.328;86.106;2023-06-10T06:46:00;3.30;;;2.33;;
78799;SDS011;68148;55.328;86.106;2023-06-10T06:48:26;6.88;;;2.70;;
78799;SDS011;68148;55.328;86.106;2023-06-10T06:50:52;8.55;;;2.42;;
78799;SDS011;68148;55.328;86.106;2023-06-10T06:53:18;7.03;;;2.72;;
78799;SDS011;68148;55.328;86.106;2023-06-10T06:55:44;1.95;;;1.35;;
78799;SDS011;68148;55.328;86.106;2023-06-10T06:58:09;3.05;;;1.58;;
78799;SDS011;68148;55.328;86.106;2023-06-10T07:00:35;4.32;;;2.70;;
78799;SDS011;68148;55.328;86.106;2023-06-10T07:03:01;4.10;;;2.08;;
78799;SDS011;68148;55.328;86.106;2023-06-10T07:05:27;2.65;;;2.30;;
78799;SDS011;68148;55.328;86.106;2023-06-10T07:07:53;3.42;;;1.98;;
78799;SDS011;68148;55.328;86.106;2023-06-10T07:10:23;3.72;;;2.70;;
78799;SDS011;68148;55.328;86.106;2023-06-10T07:12:50;2.10;;;1.70;;
78799;SDS011;68148;55.328;86.106;2023-06-10T07:15:16;3.97;;;1.80;;
78799;SDS011;68148;55.328;86.106;2023-06-10T07:17:43;5.43;;;2.28;;
78799;SDS011;68148;55.328;86.106;2023-06-10T07:20:09;2.55;;;1.98;;
78799;SDS011;68148;55.328;86.106;2023-06-10T07:22:48;3.15;;;2.40;;
78799;SDS011;68148;55.328;86.106;2023-06-10T07:25:13;5.78;;;2.75;;
78799;SDS011;68148;55.328;86.106;2023-06-10T07:27:40;5.75;;;2.38;;
78799;SDS011;68148;55.328;86.106;2023-06-10T07:30:06;1.80;;;1.25;;
78799;SDS011;68148;55.328;86.106;2023-06-10T07:32:32;4.15;;;1.80;;
78799;SDS011;68148;55.328;86.106;2023-06-10T07:34:58;5.55;;;1.88;;
78799;SDS011;68148;55.328;86.106;2023-06-10T07:37:24;6.20;;;2.72;;
78799;SDS011;68148;55.328;86.106;2023-06-10T07:39:50;9.15;;;2.50;;
78799;SDS011;68148;55.328;86.106;2023-06-10T07:42:19;5.32;;;2.70;;
78799;SDS011;68148;55.328;86.106;2023-06-10T07:44:46;4.68;;;2.03;;
78799;SDS011;68148;55.328;86.106;2023-06-10T07:47:12;4.28;;;2.50;;
78799;SDS011;68148;55.328;86.106;2023-06-10T07:49:40;12.23;;;2.13;;
78799;SDS011;68148;55.328;86.106;2023-06-10T07:52:06;7.00;;;2.78;;
78799;SDS011;68148;55.328;86.106;2023-06-10T07:54:32;8.55;;;2.95;;
78799;SDS011;68148;55.328;86.106;2023-06-10T07:56:58;3.22;;;2.15;;
78799;SDS011;68148;55.328;86.106;2023-06-10T07:59:24;3.47;;;2.15;;
78799;SDS011;68148;55.328;86.106;2023-06-10T08:01:50;4.53;;;2.38;;
78799;SDS011;68148;55.328;86.106;2023-06-10T08:04:15;3.17;;;2.70;;
78799;SDS011;68148;55.328;86.106;2023-06-10T08:06:41;4.85;;;2.63;;
78799;SDS011;68148;55.328;86.106;2023-06-10T08:09:07;3.83;;;1.67;;
78799;SDS011;68148;55.328;86.106;2023-06-10T08:11:33;5.07;;;2.50;;
78799;SDS011;68148;55.328;86.106;2023-06-10T08:13:59;9.88;;;3.28;;
78799;SDS011;68148;55.328;86.106;2023-06-10T08:16:25;4.95;;;2.85;;
78799;SDS011;68148;55.328;86.106;2023-06-10T08:18:50;5.90;;;2.10;;
78799;SDS011;68148;55.328;86.106;2023-06-10T08:21:16;6.93;;;2.40;;
78799;SDS011;68148;55.328;86.106;2023-06-10T08:23:42;4.70;;;2.30;;
78799;SDS011;68148;55.328;86.106;2023-06-10T08:26:08;5.95;;;3.33;;
78799;SDS011;68148;55.328;86.106;2023-06-10T08:28:34;8.10;;;2.40;;
78799;SDS011;68148;55.328;86.106;2023-06-10T08:31:00;4.78;;;2.28;;
78799;SDS011;68148;55.328;86.106;2023-06-10T08:33:26;3.67;;;2.53;;
78799;SDS011;68148;55.328;86.106;2023-06-10T08:35:51;7.63;;;2.20;;
78799;SDS011;68148;55.328;86.106;2023-06-10T08:38:17;4.18;;;2.28;;
78799;SDS011;68148;55.328;86.106;2023-06-10T08:40:43;5.43;;;2.70;;
78799;SDS011;68148;55.328;86.106;2023-06-10T08:45:47;6.50;;;2.58;;
78799;SDS011;68148;55.328;86.106;2023-06-10T08:48:14;5.25;;;2.58;;
78799;SDS011;68148;55.328;86.106;2023-06-10T08:50:42;2.33;;;1.58;;
78799;SDS011;68148;55.328;86.106;2023-06-10T08:53:08;4.38;;;2.90;;
78799;SDS011;68148;55.328;86.106;2023-06-10T08:58:10;7.88;;;2.85;;
78799;SDS011;68148;55.328;86.106;2023-06-10T09:00:38;2.80;;;2.00;;
78799;SDS011;68148;55.328;86.106;2023-06-10T09:03:04;3.53;;;1.85;;
78799;SDS011;68148;55.328;86.106;2023-06-10T09:05:33;6.53;;;3.85;;
78799;SDS011;68148;55.328;86.106;2023-06-10T09:07:59;9.15;;;5.68;;
78799;SDS011;68148;55.328;86.106;2023-06-10T09:10:26;5.70;;;3.15;;
78799;SDS011;68148;55.328;86.106;2023-06-10T09:12:52;10.27;;;2.95;;
78799;SDS011;68148;55.328;86.106;2023-06-10T09:15:19;5.38;;;3.03;;
78799;SDS011;68148;55.328;86.106;2023-06-10T09:17:45;5.22;;;2.63;;
78799;SDS011;68148;55.328;86.106;2023-06-10T09:20:11;7.35;;;3.25;;
78799;SDS011;68148;55.328;86.106;2023-06-10T09:22:37;15.65;;;4.57;;
78799;SDS011;68148;55.328;86.106;2023-06-10T09:25:04;7.75;;;3.28;;
78799;SDS011;68148;55.328;86.106;2023-06-10T09:27:32;7.15;;;2.15;;
78799;SDS011;68148;55.328;86.106;2023-06-10T09:29:58;4.95;;;2.65;;
78799;SDS011;68148;55.328;86.106;2023-06-10T09:32:24;9.75;;;2.65;;
78799;SDS011;68148;55.328;86.106;2023-06-10T09:34:50;7.30;;;2.05;;
78799;SDS011;68148;55.328;86.106;2023-06-10T09:37:20;5.57;;;2.13;;
78799;SDS011;68148;55.328;86.106;2023-06-10T09:40:00;5.38;;;3.03;;
78799;SDS011;68148;55.328;86.106;2023-06-10T09:42:27;3.03;;;1.65;;
78799;SDS011;68148;55.328;86.106;2023-06-10T09:44:58;6.30;;;2.70;;
78799;SDS011;68148;55.328;86.106;2023-06-10T09:47:23;3.70;;;2.50;;
78799;SDS011;68148;55.328;86.106;2023-06-10T09:49:49;3.88;;;2.90;;
78799;SDS011;68148;55.328;86.106;2023-06-10T09:52:25;3.08;;;1.63;;
78799;SDS011;68148;55.328;86.106;2023-06-10T09:54:52;3.45;;;2.33;;
78799;SDS011;68148;55.328;86.106;2023-06-10T09:57:19;15.18;;;4.18;;
78799;SDS011;68148;55.328;86.106;2023-06-10T09:59:47;6.05;;;2.95;;
78799;SDS011;68148;55.328;86.106;2023-06-10T10:02:16;6.97;;;3.30;;
78799;SDS011;68148;55.328;86.106;2023-06-10T10:04:43;5.55;;;3.60;;
78799;SDS011;68148;55.328;86.106;2023-06-10T10:07:10;7.78;;;3.15;;
78799;SDS011;68148;55.328;86.106;2023-06-10T10:09:39;6.72;;;2.88;;
78799;SDS011;68148;55.328;86.106;2023-06-10T10:12:11;5.70;;;3.33;;
78799;SDS011;68148;55.328;86.106;2023-06-10T10:14:41;8.38;;;3.92;;
78799;SDS011;68148;55.328;86.106;2023-06-10T10:17:11;5.57;;;3.63;;
78799;SDS011;68148;55.328;86.106;2023-06-10T10:19:45;11.20;;;4.65;;
78799;SDS011;68148;55.328;86.106;2023-06-10T10:22:15;6.40;;;3.60;;
78799;SDS011;68148;55.328;86.106;2023-06-10T10:24:51;10.23;;;4.53;;
78799;SDS011;68148;55.328;86.106;2023-06-10T10:27:23;4.40;;;3.03;;
78799;SDS011;68148;55.328;86.106;2023-06-10T10:29:53;6.93;;;3.63;;
78799;SDS011;68148;55.328;86.106;2023-06-10T10:32:24;6.80;;;4.05;;
78799;SDS011;68148;55.328;86.106;2023-06-10T10:35:07;7.90;;;4.95;;
78799;SDS011;68148;55.328;86.106;2023-06-10T10:37:35;37.70;;;3.97;;
78799;SDS011;68148;55.328;86.106;2023-06-10T10:40:01;5.47;;;3.58;;
78799;SDS011;68148;55.328;86.106;2023-06-10T10:42:29;8.02;;;5.43;;
78799;SDS011;68148;55.328;86.106;2023-06-10T10:44:56;7.00;;;3.95;;
78799;SDS011;68148;55.328;86.106;2023-06-10T10:47:25;13.50;;;4.20;;
78799;SDS011;68148;55.328;86.106;2023-06-10T10:49:53;5.88;;;2.80;;
78799;SDS011;68148;55.328;86.106;2023-06-10T10:52:19;4.57;;;3.53;;
78799;SDS011;68148;55.328;86.106;2023-06-10T10:54:45;6.05;;;3.88;;
78799;SDS011;68148;55.328;86.106;2023-06-10T10:57:12;7.60;;;3.83;;
78799;SDS011;68148;55.328;86.106;2023-06-10T11:02:18;12.02;;;5.35;;
78799;SDS011;68148;55.328;86.106;2023-06-10T11:04:57;8.98;;;5.18;;
78799;SDS011;68148;55.328;86.106;2023-06-10T11:07:24;13.55;;;5.63;;
78799;SDS011;68148;55.328;86.106;2023-06-10T11:09:57;7.43;;;3.78;;
78799;SDS011;68148;55.328;86.106;2023-06-10T11:12:25;5.82;;;3.65;;
78799;SDS011;68148;55.328;86.106;2023-06-10T11:14:54;7.80;;;4.28;;
78799;SDS011;68148;55.328;86.106;2023-06-10T11:17:20;12.55;;;4.50;;
78799;SDS011;68148;55.328;86.106;2023-06-10T11:19:47;16.55;;;10.05;;
78799;SDS011;68148;55.328;86.106;2023-06-10T11:22:16;10.52;;;7.05;;
78799;SDS011;68148;55.328;86.106;2023-06-10T11:24:47;7.05;;;4.75;;
78799;SDS011;68148;55.328;86.106;2023-06-10T11:27:21;7.75;;;4.63;;
78799;SDS011;68148;55.328;86.106;2023-06-10T11:29:54;7.22;;;3.75;;
78799;SDS011;68148;55.328;86.106;2023-06-10T11:32:43;7.18;;;4.65;;
78799;SDS011;68148;55.328;86.106;2023-06-10T11:35:09;6.25;;;3.78;;
78799;SDS011;68148;55.328;86.106;2023-06-10T11:37:35;6.63;;;3.13;;
78799;SDS011;68148;55.328;86.106;2023-06-10T11:40:02;12.65;;;5.15;;
78799;SDS011;68148;55.328;86.106;2023-06-10T11:42:28;9.23;;;4.30;;
78799;SDS011;68148;55.328;86.106;2023-06-10T11:44:54;11.65;;;6.65;;
78799;SDS011;68148;55.328;86.106;2023-06-10T11:47:20;8.43;;;5.05;;
78799;SDS011;68148;55.328;86.106;2023-06-10T11:49:55;11.32;;;4.90;;
78799;SDS011;68148;55.328;86.106;2023-06-10T11:52:28;7.20;;;3.85;;
78799;SDS011;68148;55.328;86.106;2023-06-10T11:54:56;8.00;;;4.90;;
78799;SDS011;68148;55.328;86.106;2023-06-10T11:57:22;7.57;;;4.93;;
78799;SDS011;68148;55.328;86.106;2023-06-10T11:59:47;13.20;;;5.55;;
78799;SDS011;68148;55.328;86.106;2023-06-10T12:02:17;12.10;;;7.20;;
78799;SDS011;68148;55.328;86.106;2023-06-10T12:04:43;18.27;;;9.80;;
78799;SDS011;68148;55.328;86.106;2023-06-10T12:07:14;15.18;;;8.25;;
78799;SDS011;68148;55.328;86.106;2023-06-10T12:09:43;13.45;;;8.02;;
78799;SDS011;68148;55.328;86.106;2023-06-10T12:12:09;13.25;;;6.40;;
78799;SDS011;68148;55.328;86.106;2023-06-10T12:14:54;14.55;;;7.13;;
78799;SDS011;68148;55.328;86.106;2023-06-10T12:19:56;11.65;;;5.40;;
78799;SDS011;68148;55.328;86.106;2023-06-10T12:22:25;13.68;;;5.75;;
78799;SDS011;68148;55.328;86.106;2023-06-10T12:25:00;10.00;;;5.10;;
78799;SDS011;68148;55.328;86.106;2023-06-10T12:27:28;7.82;;;4.78;;
78799;SDS011;68148;55.328;86.106;2023-06-10T12:29:55;8.98;;;5.78;;
78799;SDS011;68148;55.328;86.106;2023-06-10T12:32:21;9.63;;;5.53;;
78799;SDS011;68148;55.328;86.106;2023-06-10T12:34:47;8.77;;;5.82;;
78799;SDS011;68148;55.328;86.106;2023-06-10T12:37:13;14.10;;;8.15;;
78799;SDS011;68148;55.328;86.106;2023-06-10T12:39:40;18.98;;;9.93;;
78799;SDS011;68148;55.328;86.106;2023-06-10T12:42:16;21.05;;;9.30;;
78799;SDS011;68148;55.328;86.106;2023-06-10T12:44:42;11.48;;;6.43;;
78799;SDS011;68148;55.328;86.106;2023-06-10T12:47:08;8.82;;;5.40;;
78799;SDS011;68148;55.328;86.106;2023-06-10T12:49:35;12.07;;;7.05;;
78799;SDS011;68148;55.328;86.106;2023-06-10T12:52:05;8.18;;;4.50;;
78799;SDS011;68148;55.328;86.106;2023-06-10T12:54:32;8.48;;;5.13;;
78799;SDS011;68148;55.328;86.106;2023-06-10T12:56:58;10.10;;;5.20;;
78799;SDS011;68148;55.328;86.106;2023-06-10T12:59:27;14.20;;;7.93;;
78799;SDS011;68148;55.328;86.106;2023-06-10T13:01:53;11.38;;;5.88;;
78799;SDS011;68148;55.328;86.106;2023-06-10T13:04:20;13.18;;;6.05;;
78799;SDS011;68148;55.328;86.106;2023-06-10T13:06:46;15.75;;;8.68;;
78799;SDS011;68148;55.328;86.106;2023-06-10T13:09:15;13.18;;;5.93;;
78799;SDS011;68148;55.328;86.106;2023-06-10T13:11:41;14.35;;;7.00;;
78799;SDS011;68148;55.328;86.106;2023-06-10T13:14:08;8.10;;;4.65;;
78799;SDS011;68148;55.328;86.106;2023-06-10T13:16:33;10.60;;;6.30;;
78799;SDS011;68148;55.328;86.106;2023-06-10T13:18:59;11.30;;;6.32;;
78799;SDS011;68148;55.328;86.106;2023-06-10T13:21:25;14.43;;;7.90;;
78799;SDS011;68148;55.328;86.106;2023-06-10T13:23:52;12.25;;;7.40;;
78799;SDS011;68148;55.328;86.106;2023-06-10T13:26:21;11.82;;;6.57;;
78799;SDS011;68148;55.328;86.106;2023-06-10T13:28:46;14.70;;;7.80;;
78799;SDS011;68148;55.328;86.106;2023-06-10T13:31:12;13.30;;;8.20;;
78799;SDS011;68148;55.328;86.106;2023-06-10T13:33:38;15.75;;;9.80;;
78799;SDS011;68148;55.328;86.106;2023-06-10T13:36:04;16.95;;;8.52;;
78799;SDS011;68148;55.328;86.106;2023-06-10T13:38:30;20.35;;;9.38;;
78799;SDS011;68148;55.328;86.106;2023-06-10T13:40:56;15.02;;;7.93;;
78799;SDS011;68148;55.328;86.106;2023-06-10T13:43:22;15.68;;;7.60;;
78799;SDS011;68148;55.328;86.106;2023-06-10T13:45:48;13.73;;;7.93;;
78799;SDS011;68148;55.328;86.106;2023-06-10T13:48:15;11.73;;;6.13;;
78799;SDS011;68148;55.328;86.106;2023-06-10T13:50:41;16.40;;;9.88;;
78799;SDS011;68148;55.328;86.106;2023-06-10T13:53:07;15.57;;;9.73;;
78799;SDS011;68148;55.328;86.106;2023-06-10T13:55:33;14.25;;;8.18;;
78799;SDS011;68148;55.328;86.106;2023-06-10T13:57:59;15.98;;;8.68;;
78799;SDS011;68148;55.328;86.106;2023-06-10T14:00:27;14.10;;;8.13;;
78799;SDS011;68148;55.328;86.106;2023-06-10T14:02:58;19.20;;;9.43;;
78799;SDS011;68148;55.328;86.106;2023-06-10T14:05:24;13.30;;;8.10;;
78799;SDS011;68148;55.328;86.106;2023-06-10T14:07:50;16.35;;;7.75;;
78799;SDS011;68148;55.328;86.106;2023-06-10T14:10:17;19.83;;;9.90;;
78799;SDS011;68148;55.328;86.106;2023-06-10T14:12:43;21.50;;;10.15;;
78799;SDS011;68148;55.328;86.106;2023-06-10T14:15:09;20.23;;;10.68;;
78799;SDS011;68148;55.328;86.106;2023-06-10T14:17:35;18.55;;;9.95;;
78799;SDS011;68148;55.328;86.106;2023-06-10T14:20:04;16.60;;;8.77;;
78799;SDS011;68148;55.328;86.106;2023-06-10T14:22:30;17.80;;;9.77;;
78799;SDS011;68148;55.328;86.106;2023-06-10T14:24:56;19.50;;;9.82;;
78799;SDS011;68148;55.328;86.106;2023-06-10T14:27:22;20.10;;;9.77;;
78799;SDS011;68148;55.328;86.106;2023-06-10T14:29:48;20.30;;;10.93;;
78799;SDS011;68148;55.328;86.106;2023-06-10T14:32:17;17.52;;;10.23;;
78799;SDS011;68148;55.328;86.106;2023-06-10T14:34:43;18.38;;;9.52;;
78799;SDS011;68148;55.328;86.106;2023-06-10T14:37:09;17.67;;;9.38;;
78799;SDS011;68148;55.328;86.106;2023-06-10T14:39:35;16.50;;;8.57;;
78799;SDS011;68148;55.328;86.106;2023-06-10T14:42:01;19.10;;;9.77;;
78799;SDS011;68148;55.328;86.106;2023-06-10T14:44:27;19.00;;;11.00;;
78799;SDS011;68148;55.328;86.106;2023-06-10T14:46:53;21.13;;;11.40;;
78799;SDS011;68148;55.328;86.106;2023-06-10T14:49:19;19.38;;;10.55;;
78799;SDS011;68148;55.328;86.106;2023-06-10T14:51:47;22.90;;;11.00;;
78799;SDS011;68148;55.328;86.106;2023-06-10T14:54:13;18.80;;;10.40;;